createdAt,value
2018-03-21T00:00:01.969Z,62.12
2018-03-21T00:01:01.994Z,62.31
2018-03-21T00:02:02.003Z,62.12
2018-03-21T00:03:02.300Z,62.31
2018-03-21T00:04:02.018Z,62.21
2018-03-21T00:05:02.308Z,62.12
2018-03-21T00:06:02.314Z,62.21
2018-03-21T00:07:02.380Z,62.31
2018-03-21T00:08:02.337Z,62.21
2018-03-21T00:09:02.341Z,62.21
2018-03-21T00:10:02.353Z,62.21
2018-03-21T00:11:02.364Z,62.21
2018-03-21T00:12:02.087Z,62.21
2018-03-21T00:13:02.379Z,62.21
2018-03-21T00:14:02.393Z,62.02
2018-03-21T00:15:02.117Z,62.02
2018-03-21T00:16:02.414Z,62.12
2018-03-21T00:17:02.140Z,62.21
2018-03-21T00:18:02.430Z,62.21
2018-03-21T00:19:02.487Z,62.21
2018-03-21T00:20:02.448Z,62.31
2018-03-21T00:21:02.459Z,62.4
2018-03-21T00:22:02.481Z,62.21
2018-03-21T00:23:02.480Z,62.21
2018-03-21T00:24:02.240Z,62.4
2018-03-21T00:25:02.550Z,62.31
2018-03-21T00:26:02.510Z,62.4
2018-03-21T00:27:02.518Z,62.4
2018-03-21T00:28:02.537Z,62.21
2018-03-21T00:29:02.546Z,62.21
2018-03-21T00:30:02.317Z,62.31
2018-03-21T00:31:02.274Z,62.21
2018-03-21T00:32:02.570Z,62.31
2018-03-21T00:33:02.582Z,62.31
2018-03-21T00:34:02.303Z,62.31
2018-03-21T00:35:02.364Z,62.21
2018-03-21T00:36:02.613Z,62.21
2018-03-21T00:37:02.621Z,62.31
2018-03-21T00:38:02.626Z,62.02
2018-03-21T00:39:02.354Z,61.83
2018-03-21T00:40:02.364Z,61.55
2018-03-21T00:41:02.377Z,61.74
2018-03-21T00:42:02.664Z,61.74
2018-03-21T00:43:02.393Z,61.74
2018-03-21T00:44:02.684Z,61.83
2018-03-21T00:45:02.700Z,61.83
2018-03-21T00:46:02.727Z,61.83
2018-03-21T00:47:02.714Z,61.74
2018-03-21T00:48:02.727Z,61.46
2018-03-21T00:49:02.452Z,61.36
2018-03-21T00:50:02.461Z,61.55
2018-03-21T00:51:02.753Z,61.65
2018-03-21T00:52:02.496Z,61.27
2018-03-21T00:53:02.490Z,61.55
2018-03-21T00:54:02.808Z,61.65
2018-03-21T00:55:02.796Z,61.74
2018-03-21T00:56:02.803Z,61.74
2018-03-21T00:57:02.816Z,61.36
2018-03-21T00:58:02.820Z,61.65
2018-03-21T00:59:02.835Z,61.74
2018-03-21T01:00:02.575Z,61.74
2018-03-21T01:01:02.858Z,61.74
2018-03-21T01:02:02.867Z,61.65
2018-03-21T01:03:02.590Z,61.65
2018-03-21T01:04:02.599Z,61.27
2018-03-21T01:05:02.896Z,61.36
2018-03-21T01:06:02.909Z,61.74
2018-03-21T01:07:02.910Z,61.65
2018-03-21T01:08:02.926Z,61.36
2018-03-21T01:09:02.935Z,61.55
2018-03-21T01:10:02.993Z,61.55
2018-03-21T01:11:02.982Z,61.83
2018-03-21T01:12:02.960Z,61.65
2018-03-21T01:13:02.975Z,61.74
2018-03-21T01:14:02.984Z,61.74
2018-03-21T01:15:02.994Z,61.74
2018-03-21T01:16:03.018Z,61.74
2018-03-21T01:17:03.015Z,61.65
2018-03-21T01:18:03.017Z,61.65
2018-03-21T01:19:03.030Z,61.74
2018-03-21T01:20:02.754Z,61.74
2018-03-21T01:21:03.047Z,61.36
2018-03-21T01:22:02.849Z,61.27
2018-03-21T01:23:02.782Z,61.27
2018-03-21T01:24:02.824Z,61.46
2018-03-21T01:25:02.803Z,61.17
2018-03-21T01:26:03.098Z,61.46
2018-03-21T01:27:03.108Z,61.46
2018-03-21T01:28:03.115Z,61.46
2018-03-21T01:29:02.842Z,61.27
2018-03-21T01:30:02.876Z,61.46
2018-03-21T01:31:03.146Z,61.27
2018-03-21T01:32:03.170Z,61.55
2018-03-21T01:33:03.162Z,61.55
2018-03-21T01:34:03.170Z,61.46
2018-03-21T01:35:03.181Z,61.46
2018-03-21T01:36:02.929Z,61.46
2018-03-21T01:37:03.200Z,61.46
2018-03-21T01:38:02.950Z,61.46
2018-03-21T01:39:03.226Z,61.46
2018-03-21T01:40:03.251Z,61.36
2018-03-21T01:41:03.241Z,61.36
2018-03-21T01:42:03.249Z,61.27
2018-03-21T01:43:03.263Z,61.55
2018-03-21T01:44:03.303Z,61.17
2018-03-21T01:45:03.281Z,61.17
2018-03-21T01:46:03.027Z,61.55
2018-03-21T01:47:03.337Z,61.65
2018-03-21T01:48:03.306Z,61.65
2018-03-21T01:49:03.323Z,61.65
2018-03-21T01:50:03.332Z,61.65
2018-03-21T01:51:03.347Z,61.65
2018-03-21T01:52:03.089Z,61.55
2018-03-21T01:53:03.075Z,61.36
2018-03-21T01:54:03.097Z,61.55
2018-03-21T01:55:03.385Z,61.46
2018-03-21T01:56:03.103Z,61.55
2018-03-21T01:57:03.396Z,61.46
2018-03-21T01:58:03.426Z,61.27
2018-03-21T01:59:03.135Z,60.98
2018-03-21T02:00:03.432Z,60.98
2018-03-21T02:01:03.433Z,61.08
2018-03-21T02:02:03.447Z,61.17
2018-03-21T02:03:03.172Z,61.17
2018-03-21T02:04:03.468Z,61.08
2018-03-21T02:05:03.487Z,61.27
2018-03-21T02:06:03.497Z,61.36
2018-03-21T02:07:03.494Z,61.17
2018-03-21T02:08:03.238Z,61.17
2018-03-21T02:09:03.514Z,61.08
2018-03-21T02:10:03.258Z,61.27
2018-03-21T02:11:03.538Z,61.08
2018-03-21T02:12:03.544Z,60.98
2018-03-21T02:13:03.269Z,61.08
2018-03-21T02:14:03.578Z,60.98
2018-03-21T02:15:03.289Z,61.05
2018-03-21T02:16:03.328Z,60.79
2018-03-21T02:17:03.594Z,61.05
2018-03-21T02:18:03.320Z,60.98
2018-03-21T02:19:03.328Z,61.05
2018-03-21T02:20:03.338Z,60.79
2018-03-21T02:21:03.346Z,60.7
2018-03-21T02:22:03.379Z,60.79
2018-03-21T02:23:03.370Z,60.86
2018-03-21T02:24:03.676Z,61.27
2018-03-21T02:25:03.673Z,60.6
2018-03-21T02:26:03.396Z,60.47
2018-03-21T02:27:03.405Z,60.98
2018-03-21T02:28:03.715Z,60.89
2018-03-21T02:29:03.713Z,60.86
2018-03-21T02:30:03.743Z,60.76
2018-03-21T02:31:03.454Z,60.89
2018-03-21T02:32:03.754Z,60.57
2018-03-21T02:33:03.748Z,60.86
2018-03-21T02:34:03.474Z,60.89
2018-03-21T02:35:03.502Z,60.7
2018-03-21T02:36:03.787Z,60.31
2018-03-21T02:37:03.789Z,60.5
2018-03-21T02:38:03.815Z,60.28
2018-03-21T02:39:03.523Z,60.19
2018-03-21T02:40:03.832Z,60.57
2018-03-21T02:41:03.830Z,60.41
2018-03-21T02:42:03.839Z,60.28
2018-03-21T02:43:03.562Z,60.67
2018-03-21T02:44:03.601Z,60.28
2018-03-21T02:45:03.866Z,60.28
2018-03-21T02:46:03.603Z,60.28
2018-03-21T02:47:03.886Z,60.47
2018-03-21T02:48:03.610Z,60.47
2018-03-21T02:49:03.618Z,60.1
2018-03-21T02:50:03.924Z,60.1
2018-03-21T02:51:03.644Z,60.38
2018-03-21T02:52:03.645Z,60.38
2018-03-21T02:53:03.950Z,60.38
2018-03-21T02:54:03.963Z,60.28
2018-03-21T02:55:03.958Z,60.28
2018-03-21T02:56:04.028Z,60.47
2018-03-21T02:57:03.975Z,60.28
2018-03-21T02:58:03.994Z,60.57
2018-03-21T02:59:04.010Z,60.38
2018-03-21T03:00:03.731Z,60.38
2018-03-21T03:01:04.067Z,60.38
2018-03-21T03:02:04.027Z,60.57
2018-03-21T03:03:03.752Z,60.67
2018-03-21T03:04:04.049Z,60.67
2018-03-21T03:05:04.059Z,60.67
2018-03-21T03:06:03.853Z,60.76
2018-03-21T03:07:03.793Z,60.57
2018-03-21T03:08:04.087Z,60.67
2018-03-21T03:09:03.811Z,60.67
2018-03-21T03:10:03.818Z,60.67
2018-03-21T03:11:04.164Z,60.67
2018-03-21T03:12:03.842Z,60.67
2018-03-21T03:13:04.134Z,60.67
2018-03-21T03:14:04.156Z,60.67
2018-03-21T03:15:03.866Z,60.67
2018-03-21T03:16:04.209Z,60.57
2018-03-21T03:17:03.889Z,60.86
2018-03-21T03:18:03.896Z,60.86
2018-03-21T03:19:03.907Z,60.86
2018-03-21T03:20:04.197Z,60.86
2018-03-21T03:21:03.976Z,60.86
2018-03-21T03:22:03.938Z,60.86
2018-03-21T03:23:03.944Z,60.86
2018-03-21T03:24:04.235Z,60.67
2018-03-21T03:25:03.965Z,60.1
2018-03-21T03:26:04.314Z,60.47
2018-03-21T03:27:04.269Z,60.47
2018-03-21T03:28:03.992Z,60.38
2018-03-21T03:29:04.285Z,59.91
2018-03-21T03:30:04.327Z,60
2018-03-21T03:31:04.071Z,60.1
2018-03-21T03:32:04.040Z,60.38
2018-03-21T03:33:04.327Z,60.38
2018-03-21T03:34:04.049Z,60.19
2018-03-21T03:35:04.061Z,60.19
2018-03-21T03:36:04.118Z,60.38
2018-03-21T03:37:04.363Z,60.1
2018-03-21T03:38:04.374Z,60.86
2018-03-21T03:39:04.096Z,60.38
2018-03-21T03:40:04.108Z,60.38
2018-03-21T03:41:04.403Z,60.1
2018-03-21T03:42:04.126Z,60.28
2018-03-21T03:43:04.136Z,60.28
2018-03-21T03:44:04.432Z,60.28
2018-03-21T03:45:04.441Z,60.19
2018-03-21T03:46:04.165Z,60.28
2018-03-21T03:47:04.176Z,60.28
2018-03-21T03:48:04.464Z,60.28
2018-03-21T03:49:04.190Z,60.19
2018-03-21T03:50:04.208Z,60.1
2018-03-21T03:51:04.497Z,60.38
2018-03-21T03:52:04.220Z,60.38
2018-03-21T03:53:04.232Z,60.38
2018-03-21T03:54:04.531Z,60.28
2018-03-21T03:55:04.534Z,60.28
2018-03-21T03:56:04.258Z,60.28
2018-03-21T03:57:04.270Z,60.1
2018-03-21T03:58:04.278Z,60.19
2018-03-21T03:59:04.573Z,60.19
2018-03-21T04:00:04.298Z,60.28
2018-03-21T04:01:04.589Z,60.1
2018-03-21T04:02:04.315Z,60.1
2018-03-21T04:03:04.607Z,60.1
2018-03-21T04:04:04.337Z,60
2018-03-21T04:05:04.630Z,60.19
2018-03-21T04:06:04.637Z,60.47
2018-03-21T04:07:04.363Z,60
2018-03-21T04:08:04.371Z,60
2018-03-21T04:09:04.674Z,60
2018-03-21T04:10:04.676Z,60.67
2018-03-21T04:11:04.406Z,60.1
2018-03-21T04:12:04.415Z,60.57
2018-03-21T04:13:04.723Z,60.1
2018-03-21T04:14:04.737Z,60
2018-03-21T04:15:04.722Z,59.91
2018-03-21T04:16:04.453Z,59.81
2018-03-21T04:17:04.459Z,59.72
2018-03-21T04:18:04.756Z,60.19
2018-03-21T04:19:04.763Z,59.91
2018-03-21T04:20:04.802Z,59.63
2018-03-21T04:21:04.784Z,59.72
2018-03-21T04:22:04.507Z,60.38
2018-03-21T04:23:04.794Z,59.63
2018-03-21T04:24:04.806Z,60.19
2018-03-21T04:25:04.823Z,60.28
2018-03-21T04:26:04.838Z,60.19
2018-03-21T04:27:04.838Z,60
2018-03-21T04:28:04.564Z,60.19
2018-03-21T04:29:04.573Z,60.19
2018-03-21T04:30:04.869Z,60.19
2018-03-21T04:31:04.592Z,60.19
2018-03-21T04:32:04.600Z,60.1
2018-03-21T04:33:04.610Z,60.19
2018-03-21T04:34:04.912Z,60.28
2018-03-21T04:35:04.627Z,59.81
2018-03-21T04:36:04.635Z,59.63
2018-03-21T04:37:04.931Z,60.19
2018-03-21T04:38:04.660Z,59.63
2018-03-21T04:39:04.955Z,60.19
2018-03-21T04:40:04.965Z,59.72
2018-03-21T04:41:04.689Z,60.47
2018-03-21T04:42:04.980Z,60
2018-03-21T04:43:04.707Z,60
2018-03-21T04:44:04.717Z,59.91
2018-03-21T04:45:05.020Z,60.47
2018-03-21T04:46:04.734Z,60.47
2018-03-21T04:47:04.739Z,59.91
2018-03-21T04:48:05.032Z,60.1
2018-03-21T04:49:04.758Z,60
2018-03-21T04:50:05.050Z,59.91
2018-03-21T04:51:04.779Z,60
2018-03-21T04:52:05.072Z,60.19
2018-03-21T04:53:05.089Z,60.1
2018-03-21T04:54:04.805Z,60.19
2018-03-21T04:55:04.816Z,59.91
2018-03-21T04:56:05.110Z,59.91
2018-03-21T04:57:05.140Z,60.47
2018-03-21T04:58:05.127Z,60.47
2018-03-21T04:59:05.145Z,60.47
2018-03-21T05:00:05.151Z,60
2018-03-21T05:01:04.872Z,60.57
2018-03-21T05:02:04.932Z,60.28
2018-03-21T05:03:04.892Z,60.28
2018-03-21T05:04:05.185Z,60.1
2018-03-21T05:05:05.197Z,60.28
2018-03-21T05:06:04.918Z,60.1
2018-03-21T05:07:04.979Z,60.1
2018-03-21T05:08:05.220Z,60.1
2018-03-21T05:09:04.947Z,60.1
2018-03-21T05:10:05.239Z,60.1
2018-03-21T05:11:05.246Z,60.1
2018-03-21T05:12:05.279Z,60.28
2018-03-21T05:13:05.269Z,60.19
2018-03-21T05:14:05.275Z,60.19
2018-03-21T05:15:05.291Z,60.28
2018-03-21T05:16:05.296Z,60.19
2018-03-21T05:17:05.311Z,60.28
2018-03-21T05:18:05.322Z,60.19
2018-03-21T05:19:05.329Z,60.28
2018-03-21T05:20:05.064Z,60.19
2018-03-21T05:21:05.060Z,60.38
2018-03-21T05:22:05.403Z,60.28
2018-03-21T05:23:05.089Z,60.19
2018-03-21T05:24:05.381Z,60.47
2018-03-21T05:25:05.100Z,60.47
2018-03-21T05:26:05.107Z,60.28
2018-03-21T05:27:05.398Z,60.38
2018-03-21T05:28:05.410Z,60.47
2018-03-21T05:29:05.152Z,60.47
2018-03-21T05:30:05.146Z,60.47
2018-03-21T05:31:05.433Z,60.38
2018-03-21T05:32:05.489Z,60.1
2018-03-21T05:33:05.171Z,60.38
2018-03-21T05:34:05.179Z,60
2018-03-21T05:35:05.190Z,60.38
2018-03-21T05:36:05.200Z,60.19
2018-03-21T05:37:05.495Z,60.19
2018-03-21T05:38:05.503Z,60.19
2018-03-21T05:39:05.861Z,60.19
2018-03-21T05:40:05.237Z,60.38
2018-03-21T05:41:05.246Z,60.47
2018-03-21T05:42:05.554Z,60.47
2018-03-21T05:43:05.547Z,60.47
2018-03-21T05:44:05.559Z,60.38
2018-03-21T05:45:05.579Z,60.19
2018-03-21T05:46:05.577Z,60.1
2018-03-21T05:47:05.593Z,60.28
2018-03-21T05:48:05.361Z,60.38
2018-03-21T05:49:05.321Z,60.1
2018-03-21T05:50:05.329Z,60.19
2018-03-21T05:51:05.339Z,60.19
2018-03-21T05:52:05.350Z,60.19
2018-03-21T05:53:05.357Z,60.28
2018-03-21T05:54:05.651Z,60.1
2018-03-21T05:55:05.670Z,60.38
2018-03-21T05:56:05.668Z,60.28
2018-03-21T05:57:05.687Z,60.1
2018-03-21T05:58:05.688Z,60.47
2018-03-21T05:59:05.697Z,60.28
2018-03-21T06:00:05.987Z,60.38
2018-03-21T06:01:05.433Z,60.28
2018-03-21T06:02:05.725Z,60.19
2018-03-21T06:03:05.454Z,60.1
2018-03-21T06:04:05.743Z,60.19
2018-03-21T06:05:05.858Z,60.1
2018-03-21T06:06:05.787Z,60.28
2018-03-21T06:07:05.485Z,60.1
2018-03-21T06:08:05.784Z,60.1
2018-03-21T06:09:05.796Z,60.19
2018-03-21T06:10:05.801Z,60.19
2018-03-21T06:11:05.807Z,60.1
2018-03-21T06:12:05.864Z,60
2018-03-21T06:13:05.826Z,60.57
2018-03-21T06:14:05.553Z,60.47
2018-03-21T06:15:05.561Z,60.47
2018-03-21T06:16:05.856Z,60.57
2018-03-21T06:17:05.578Z,60.47
2018-03-21T06:18:05.874Z,60.1
2018-03-21T06:19:05.883Z,59.91
2018-03-21T06:20:05.898Z,60.47
2018-03-21T06:21:05.615Z,60.1
2018-03-21T06:22:05.906Z,59.81
2018-03-21T06:23:05.639Z,60.28
2018-03-21T06:24:05.926Z,59.63
2018-03-21T06:25:05.654Z,60.28
2018-03-21T06:26:05.954Z,59.63
2018-03-21T06:27:05.671Z,60.28
2018-03-21T06:28:05.995Z,60.28
2018-03-21T06:29:05.973Z,60.19
2018-03-21T06:30:05.702Z,59.91
2018-03-21T06:31:06.002Z,59.91
2018-03-21T06:32:06.002Z,59.72
2018-03-21T06:33:05.728Z,59.91
2018-03-21T06:34:06.021Z,60
2018-03-21T06:35:05.745Z,59.53
2018-03-21T06:36:06.046Z,59.91
2018-03-21T06:37:06.049Z,59.63
2018-03-21T06:38:06.138Z,59.72
2018-03-21T06:39:05.784Z,59.81
2018-03-21T06:40:06.075Z,59.72
2018-03-21T06:41:05.800Z,59.72
2018-03-21T06:42:06.101Z,59.63
2018-03-21T06:43:06.104Z,59.63
2018-03-21T06:44:06.117Z,59.72
2018-03-21T06:45:06.124Z,59.63
2018-03-21T06:46:05.847Z,59.63
2018-03-21T06:47:06.142Z,59.91
2018-03-21T06:48:06.197Z,59.63
2018-03-21T06:49:05.876Z,59.72
2018-03-21T06:50:06.223Z,59.72
2018-03-21T06:51:06.182Z,59.72
2018-03-21T06:52:05.905Z,59.81
2018-03-21T06:53:06.249Z,59.72
2018-03-21T06:54:06.205Z,59.72
2018-03-21T06:55:05.971Z,59.63
2018-03-21T06:56:05.943Z,59.72
2018-03-21T06:57:06.232Z,59.63
2018-03-21T06:58:06.298Z,59.53
2018-03-21T06:59:06.251Z,59.72
2018-03-21T07:00:06.260Z,59.72
2018-03-21T07:01:05.990Z,59.44
2018-03-21T07:02:06.281Z,59.63
2018-03-21T07:03:06.346Z,59.63
2018-03-21T07:04:06.018Z,59.63
2018-03-21T07:05:06.309Z,59.53
2018-03-21T07:06:06.369Z,59.63
2018-03-21T07:07:06.326Z,59.53
2018-03-21T07:08:06.389Z,59.72
2018-03-21T07:09:06.064Z,59.72
2018-03-21T07:10:06.382Z,59.53
2018-03-21T07:11:06.120Z,59.44
2018-03-21T07:12:06.094Z,59.44
2018-03-21T07:13:06.381Z,59.44
2018-03-21T07:14:06.392Z,59.37
2018-03-21T07:15:06.404Z,59.56
2018-03-21T07:16:06.420Z,59.66
2018-03-21T07:17:06.423Z,59.53
2018-03-21T07:18:06.146Z,59.63
2018-03-21T07:19:06.159Z,59.66
2018-03-21T07:20:06.461Z,59.46
2018-03-21T07:21:06.176Z,59.37
2018-03-21T07:22:06.469Z,59.27
2018-03-21T07:23:06.481Z,59.08
2018-03-21T07:24:06.486Z,59.08
2018-03-21T07:25:06.213Z,59.08
2018-03-21T07:26:06.505Z,59.08
2018-03-21T07:27:06.518Z,59.18
2018-03-21T07:28:06.523Z,59.27
2018-03-21T07:29:06.250Z,59.27
2018-03-21T07:30:06.542Z,58.99
2018-03-21T07:31:06.609Z,59.18
2018-03-21T07:32:06.281Z,58.89
2018-03-21T07:33:06.291Z,59.18
2018-03-21T07:34:06.583Z,58.89
2018-03-21T07:35:06.594Z,58.8
2018-03-21T07:36:06.606Z,58.89
2018-03-21T07:37:06.324Z,58.61
2018-03-21T07:38:06.338Z,58.89
2018-03-21T07:39:06.749Z,58.61
2018-03-21T07:40:06.356Z,58.61
2018-03-21T07:41:06.648Z,58.61
2018-03-21T07:42:06.654Z,58.51
2018-03-21T07:43:06.383Z,58.51
2018-03-21T07:44:06.676Z,58.51
2018-03-21T07:45:06.785Z,58.7
2018-03-21T07:46:06.411Z,58.51
2018-03-21T07:47:06.670Z,58.7
2018-03-21T07:48:06.506Z,58.51
2018-03-21T07:49:06.726Z,58.7
2018-03-21T07:50:06.732Z,58.8
2018-03-21T07:51:06.744Z,58.14
2018-03-21T07:52:06.473Z,58.14
2018-03-21T07:53:06.765Z,57.95
2018-03-21T07:54:06.781Z,57.95
2018-03-21T07:55:06.502Z,57.95
2018-03-21T07:56:06.513Z,57.98
2018-03-21T07:57:06.800Z,58.04
2018-03-21T07:58:06.811Z,58.23
2018-03-21T07:59:06.539Z,58.14
2018-03-21T08:00:06.828Z,58.17
2018-03-21T08:01:06.837Z,57.98
2018-03-21T08:02:06.851Z,58.36
2018-03-21T08:03:06.577Z,58.17
2018-03-21T08:04:06.886Z,58.07
2018-03-21T08:05:06.878Z,58.45
2018-03-21T08:06:06.889Z,58.36
2018-03-21T08:07:07.002Z,58.17
2018-03-21T08:08:06.906Z,58.17
2018-03-21T08:09:06.637Z,58.26
2018-03-21T08:10:06.993Z,58.45
2018-03-21T08:11:06.652Z,58.36
2018-03-21T08:12:06.951Z,57.98
2018-03-21T08:13:06.958Z,57.79
2018-03-21T08:14:06.688Z,57.69
2018-03-21T08:15:06.980Z,57.88
2018-03-21T08:16:06.708Z,57.79
2018-03-21T08:17:06.996Z,57.5
2018-03-21T08:18:07.006Z,57.69
2018-03-21T08:19:07.018Z,57.79
2018-03-21T08:20:07.030Z,58.17
2018-03-21T08:21:06.760Z,57.88
2018-03-21T08:22:07.048Z,57.69
2018-03-21T08:23:07.056Z,57.69
2018-03-21T08:24:07.071Z,57.69
2018-03-21T08:25:07.149Z,57.31
2018-03-21T08:26:07.086Z,57.31
2018-03-21T08:27:07.105Z,57.5
2018-03-21T08:28:07.120Z,57.34
2018-03-21T08:29:06.832Z,57.53
2018-03-21T08:30:07.128Z,57.72
2018-03-21T08:31:06.854Z,57.72
2018-03-21T08:32:06.893Z,57.91
2018-03-21T08:33:06.872Z,57.53
2018-03-21T08:34:07.217Z,57.62
2018-03-21T08:35:07.182Z,57.43
2018-03-21T08:36:07.187Z,57.34
2018-03-21T08:37:06.928Z,57.24
2018-03-21T08:38:06.930Z,56.96
2018-03-21T08:39:07.266Z,57.15
2018-03-21T08:40:07.224Z,56.58
2018-03-21T08:41:07.237Z,56.49
2018-03-21T08:42:06.963Z,56.49
2018-03-21T08:43:07.264Z,56.1
2018-03-21T08:44:06.986Z,56.29
2018-03-21T08:45:07.276Z,56.58
2018-03-21T08:46:07.001Z,56.2
2018-03-21T08:47:07.297Z,56.29
2018-03-21T08:48:07.352Z,56.1
2018-03-21T08:49:07.040Z,56.39
2018-03-21T08:50:07.330Z,56.2
2018-03-21T08:51:07.338Z,56.39
2018-03-21T08:52:07.356Z,56.1
2018-03-21T08:53:07.084Z,56.01
2018-03-21T08:54:07.427Z,56.01
2018-03-21T08:55:07.501Z,55.73
2018-03-21T08:56:07.102Z,56.1
2018-03-21T08:57:07.118Z,56.29
2018-03-21T08:58:07.125Z,56.2
2018-03-21T08:59:07.136Z,56.2
2018-03-21T09:00:07.150Z,56.29
2018-03-21T09:01:07.444Z,56.29
2018-03-21T09:02:07.165Z,56.2
2018-03-21T09:03:07.175Z,56.29
2018-03-21T09:04:07.186Z,56.68
2018-03-21T09:05:07.481Z,56.77
2018-03-21T09:06:07.489Z,56.49
2018-03-21T09:07:07.260Z,56.39
2018-03-21T09:08:07.233Z,56.39
2018-03-21T09:09:07.523Z,55.57
2018-03-21T09:10:07.250Z,55.73
2018-03-21T09:11:07.548Z,55.73
2018-03-21T09:12:07.549Z,55.57
2018-03-21T09:13:07.631Z,55.47
2018-03-21T09:14:07.292Z,55.09
2018-03-21T09:15:07.588Z,55.28
2018-03-21T09:16:07.603Z,55.28
2018-03-21T09:17:07.607Z,55.28
2018-03-21T09:18:07.335Z,55.47
2018-03-21T09:19:07.347Z,55.66
2018-03-21T09:20:07.363Z,55.66
2018-03-21T09:21:07.364Z,55.57
2018-03-21T09:22:07.420Z,55.37
2018-03-21T09:23:07.667Z,54.9
2018-03-21T09:24:07.397Z,54.8
2018-03-21T09:25:07.691Z,55.09
2018-03-21T09:26:07.753Z,54.8
2018-03-21T09:27:07.726Z,54.8
2018-03-21T09:28:07.720Z,54.71
2018-03-21T09:29:07.727Z,54.9
2018-03-21T09:30:07.464Z,55.28
2018-03-21T09:31:07.466Z,54.99
2018-03-21T09:32:07.478Z,54.71
2018-03-21T09:33:07.769Z,54.8
2018-03-21T09:34:07.784Z,54.99
2018-03-21T09:35:07.792Z,55.09
2018-03-21T09:36:07.807Z,55.18
2018-03-21T09:37:07.537Z,55.47
2018-03-21T09:38:07.828Z,54.99
2018-03-21T09:39:07.577Z,55.76
2018-03-21T09:40:07.894Z,54.99
2018-03-21T09:41:07.856Z,55.47
2018-03-21T09:42:07.875Z,55.37
2018-03-21T09:43:07.596Z,54.99
2018-03-21T09:44:07.605Z,55.02
2018-03-21T09:45:07.616Z,54.55
2018-03-21T09:46:07.630Z,54.64
2018-03-21T09:47:07.923Z,53.78
2018-03-21T09:48:07.659Z,53.88
2018-03-21T09:49:07.948Z,53.5
2018-03-21T09:50:07.954Z,53.88
2018-03-21T09:51:07.682Z,54.93
2018-03-21T09:52:07.701Z,54.74
2018-03-21T09:53:07.987Z,54.74
2018-03-21T09:54:08.006Z,54.93
2018-03-21T09:55:08.008Z,54.64
2018-03-21T09:56:08.024Z,54.64
2018-03-21T09:57:07.746Z,54.83
2018-03-21T09:58:07.755Z,54.74
2018-03-21T09:59:08.288Z,55.11
2018-03-21T10:00:07.780Z,54.93
2018-03-21T10:01:07.826Z,54.93
2018-03-21T10:02:07.884Z,55.3
2018-03-21T10:03:08.125Z,55.11
2018-03-21T10:04:07.864Z,54.36
2018-03-21T10:05:07.922Z,54.26
2018-03-21T10:06:07.956Z,53.88
2018-03-21T10:07:07.920Z,53.69
2018-03-21T10:08:07.897Z,54
2018-03-21T10:09:08.171Z,54.17
2018-03-21T10:10:07.893Z,54
2018-03-21T10:11:07.994Z,53.43
2018-03-21T10:12:08.215Z,53.53
2018-03-21T10:13:08.208Z,53.5
2018-03-21T10:14:07.978Z,53.15
2018-03-21T10:15:07.972Z,53.72
2018-03-21T10:16:07.985Z,53.34
2018-03-21T10:17:08.118Z,53.63
2018-03-21T10:18:08.268Z,53.24
2018-03-21T10:19:08.000Z,53.15
2018-03-21T10:20:08.286Z,52.58
2018-03-21T10:21:08.013Z,52.86
2018-03-21T10:22:08.025Z,52.48
2018-03-21T10:23:08.320Z,52.48
2018-03-21T10:24:08.332Z,52.58
2018-03-21T10:25:08.340Z,52.48
2018-03-21T10:26:08.352Z,52.29
2018-03-21T10:27:08.081Z,52.67
2018-03-21T10:28:08.376Z,52.39
2018-03-21T10:29:08.451Z,52.58
2018-03-21T10:30:08.115Z,52.39
2018-03-21T10:31:08.409Z,52.48
2018-03-21T10:32:08.417Z,53.03
2018-03-21T10:33:08.436Z,53.41
2018-03-21T10:34:08.156Z,53.24
2018-03-21T10:35:08.453Z,52.67
2018-03-21T10:36:08.470Z,53.63
2018-03-21T10:37:08.480Z,53.72
2018-03-21T10:38:08.206Z,53.24
2018-03-21T10:39:08.498Z,53.34
2018-03-21T10:40:08.230Z,54.29
2018-03-21T10:41:08.235Z,52.86
2018-03-21T10:42:08.533Z,52.86
2018-03-21T10:43:08.274Z,52.86
2018-03-21T10:44:08.564Z,53.24
2018-03-21T10:45:08.707Z,53.63
2018-03-21T10:46:08.295Z,53.63
2018-03-21T10:47:08.311Z,53.24
2018-03-21T10:48:08.607Z,52.86
2018-03-21T10:49:08.619Z,52.58
2018-03-21T10:50:08.636Z,52.48
2018-03-21T10:51:08.636Z,52.67
2018-03-21T10:52:08.657Z,52.67
2018-03-21T10:53:08.378Z,52.2
2018-03-21T10:54:08.418Z,52.58
2018-03-21T10:55:08.403Z,52.86
2018-03-21T10:56:08.410Z,52.48
2018-03-21T10:57:08.422Z,52.76
2018-03-21T10:58:08.725Z,52.96
2018-03-21T10:59:08.468Z,53.34
2018-03-21T11:00:08.456Z,52.32
2018-03-21T11:01:08.803Z,52.41
2018-03-21T11:02:08.956Z,52.32
2018-03-21T11:03:08.780Z,52.61
2018-03-21T11:04:08.506Z,52.22
2018-03-21T11:05:08.803Z,52.03
2018-03-21T11:06:08.865Z,51.84
2018-03-21T11:07:08.824Z,52.41
2018-03-21T11:08:08.901Z,52.32
2018-03-21T11:09:08.862Z,52.61
2018-03-21T11:10:08.858Z,52.7
2018-03-21T11:11:08.584Z,52.61
2018-03-21T11:12:08.598Z,52.7
2018-03-21T11:13:08.895Z,52.7
2018-03-21T11:14:08.943Z,52.61
2018-03-21T11:15:08.915Z,52.8
2018-03-21T11:16:08.698Z,53.17
2018-03-21T11:17:08.942Z,52.51
2018-03-21T11:18:08.951Z,52.7
2018-03-21T11:19:08.686Z,52.61
2018-03-21T11:20:08.694Z,52.41
2018-03-21T11:21:09.038Z,52.22
2018-03-21T11:22:09.002Z,51.65
2018-03-21T11:23:08.732Z,51.65
2018-03-21T11:24:09.048Z,51.84
2018-03-21T11:25:08.757Z,52.03
2018-03-21T11:26:08.765Z,52.03
2018-03-21T11:27:08.777Z,51.37
2018-03-21T11:28:09.075Z,51.08
2018-03-21T11:29:08.808Z,51.08
2018-03-21T11:30:09.097Z,51.37
2018-03-21T11:31:09.109Z,51.18
2018-03-21T11:32:09.123Z,51.37
2018-03-21T11:33:09.137Z,51.46
2018-03-21T11:34:09.253Z,51.46
2018-03-21T11:35:09.157Z,51.56
2018-03-21T11:36:09.169Z,51.37
2018-03-21T11:37:09.181Z,51.18
2018-03-21T11:38:09.205Z,51.18
2018-03-21T11:39:09.206Z,51.46
2018-03-21T11:40:09.217Z,51.56
2018-03-21T11:41:09.237Z,51.46
2018-03-21T11:42:09.018Z,51.37
2018-03-21T11:43:09.252Z,51.37
2018-03-21T11:44:09.270Z,51.27
2018-03-21T11:45:09.283Z,51.46
2018-03-21T11:46:09.013Z,51.27
2018-03-21T11:47:09.308Z,50.99
2018-03-21T11:48:09.316Z,51.56
2018-03-21T11:49:09.052Z,51.18
2018-03-21T11:50:09.413Z,51.37
2018-03-21T11:51:09.404Z,51.37
2018-03-21T11:52:09.370Z,51.37
2018-03-21T11:53:09.385Z,51.56
2018-03-21T11:54:09.394Z,51.37
2018-03-21T11:55:09.417Z,50.51
2018-03-21T11:56:09.415Z,50.89
2018-03-21T11:57:09.424Z,51.18
2018-03-21T11:58:09.445Z,51.56
2018-03-21T11:59:09.460Z,51.46
2018-03-21T12:00:09.471Z,51.08
2018-03-21T12:01:09.476Z,50.7
2018-03-21T12:02:09.489Z,50.79
2018-03-21T12:03:09.505Z,50.13
2018-03-21T12:04:09.511Z,50.32
2018-03-21T12:05:09.529Z,50.32
2018-03-21T12:06:09.540Z,50.7
2018-03-21T12:07:09.565Z,50.7
2018-03-21T12:08:09.287Z,50.6
2018-03-21T12:09:09.573Z,50.79
2018-03-21T12:10:09.599Z,50.6
2018-03-21T12:11:09.600Z,50.7
2018-03-21T12:12:09.663Z,50.79
2018-03-21T12:13:09.344Z,51.18
2018-03-21T12:14:09.644Z,51.27
2018-03-21T12:15:09.367Z,51.18
2018-03-21T12:16:09.664Z,50.99
2018-03-21T12:17:09.723Z,50.99
2018-03-21T12:18:09.693Z,50.6
2018-03-21T12:19:09.704Z,50.79
2018-03-21T12:20:09.712Z,50.7
2018-03-21T12:21:09.731Z,50.7
2018-03-21T12:22:09.750Z,50.13
2018-03-21T12:23:09.756Z,50.23
2018-03-21T12:24:09.765Z,50.23
2018-03-21T12:25:09.494Z,50.23
2018-03-21T12:26:09.799Z,50.23
2018-03-21T12:27:09.850Z,50.13
2018-03-21T12:28:09.814Z,50.6
2018-03-21T12:29:09.821Z,50.51
2018-03-21T12:30:09.556Z,50.42
2018-03-21T12:31:09.567Z,51.08
2018-03-21T12:32:09.627Z,51.08
2018-03-21T12:33:09.877Z,51.08
2018-03-21T12:34:09.893Z,51.08
2018-03-21T12:35:09.619Z,50.99
2018-03-21T12:36:09.631Z,51.37
2018-03-21T12:37:09.639Z,51.27
2018-03-21T12:38:10.043Z,51.65
2018-03-21T12:39:09.956Z,51.75
2018-03-21T12:40:09.965Z,51.56
2018-03-21T12:41:09.692Z,51.3
2018-03-21T12:42:10.034Z,51.37
2018-03-21T12:43:10.007Z,51.1
2018-03-21T12:44:10.023Z,51.37
2018-03-21T12:45:10.040Z,51.56
2018-03-21T12:46:10.043Z,51.27
2018-03-21T12:47:10.106Z,51.68
2018-03-21T12:48:10.069Z,51.78
2018-03-21T12:49:10.085Z,51.39
2018-03-21T12:50:10.115Z,51.39
2018-03-21T12:51:10.102Z,51.49
2018-03-21T12:52:09.830Z,51.3
2018-03-21T12:53:10.125Z,50.92
2018-03-21T12:54:10.143Z,51.39
2018-03-21T12:55:09.866Z,51.58
2018-03-21T12:56:10.415Z,51.68
2018-03-21T12:57:10.175Z,51.68